Time;durP1;ratioP1;P1;durP2;ratioP2;P2;SDS_P1;SDS_P2;PMS_P1;PMS_P2;Temp;Humidity;BMP_temperature;BMP_pressure;BME280_temperature;BME280_humidity;BME280_pressure;Samples;Min_cycle;Max_cycle;Signal;HPM_P1;HPM_P2
2023/07/19 00:02:13;;;;;;;;;4.00;3.75;;;;;16.50;55.03;99697.22;5024905;28;8881;-58
2023/07/19 00:04:41;;;;;;;;;4.00;4.00;;;;;16.56;54.55;99695.75;5033041;28;8828;-57
2023/07/19 00:07:11;;;;;;;;;4.00;3.25;;;;;16.60;54.36;99697.09;5034534;28;8963;-57
2023/07/19 00:09:41;;;;;;;;;3.00;3.00;;;;;16.63;54.85;99689.53;5017739;28;8832;-57
2023/07/19 00:12:10;;;;;;;;;4.50;4.00;;;;;16.67;54.44;99692.72;5028482;28;8822;-57
2023/07/19 00:14:38;;;;;;;;;3.25;3.25;;;;;16.70;54.82;99698.59;5014840;28;8864;-57
2023/07/19 00:17:05;;;;;;;;;4.00;4.00;;;;;16.76;54.52;99706.03;5014951;28;8838;-58
2023/07/19 00:19:33;;;;;;;;;6.50;6.50;;;;;16.79;54.18;99705.66;5015010;28;8966;-59
2023/07/19 00:22:01;;;;;;;;;5.50;4.00;;;;;16.84;54.46;99710.53;5019963;28;8838;-57
2023/07/19 00:24:31;;;;;;;;;6.00;4.00;;;;;16.90;54.45;99699.13;5034807;28;8842;-58
2023/07/19 00:26:59;;;;;;;;;8.50;6.50;;;;;16.93;54.11;99694.25;5034254;28;8820;-58
2023/07/19 00:29:26;;;;;;;;;7.00;6.00;;;;;16.91;54.42;99700.81;5029855;28;8812;-59
2023/07/19 00:31:54;;;;;;;;;3.25;3.25;;;;;16.83;54.52;99698.97;5023883;28;8822;-56
2023/07/19 00:34:22;;;;;;;;;4.00;4.00;;;;;16.74;54.89;99699.97;5014815;28;8842;-59
2023/07/19 00:36:50;;;;;;;;;6.00;4.00;;;;;16.63;54.73;99694.91;5014747;28;8826;-59
2023/07/19 00:39:17;;;;;;;;;4.00;4.00;;;;;16.57;54.93;99681.28;5029921;28;8848;-58
2023/07/19 00:41:45;;;;;;;;;4.50;4.00;;;;;16.53;55.52;99680.78;5034432;28;8831;-57
2023/07/19 00:44:13;;;;;;;;;3.00;3.00;;;;;16.49;55.75;99668.66;5035014;28;8820;-58
2023/07/19 00:46:41;;;;;;;;;4.00;4.00;;;;;16.49;55.26;99663.28;5033868;28;8859;-57
2023/07/19 00:49:10;;;;;;;;;4.00;3.50;;;;;16.46;55.53;99666.31;5017090;28;8815;-57
2023/07/19 00:51:38;;;;;;;;;4.00;4.00;;;;;16.42;55.31;99664.97;5013475;28;8830;-56
2023/07/19 00:54:05;;;;;;;;;6.00;6.00;;;;;16.38;55.41;99663.63;5024597;28;8827;-58
2023/07/19 00:56:33;;;;;;;;;2.50;2.50;;;;;16.35;55.52;99653.16;5033189;28;8835;-57
2023/07/19 00:59:01;;;;;;;;;4.00;4.00;;;;;16.32;56.04;99650.81;5017745;28;8807;-57
2023/07/19 01:01:29;;;;;;;;;3.00;3.00;;;;;16.31;55.74;99657.19;5014034;28;8818;-58
2023/07/19 01:03:57;;;;;;;;;4.00;4.00;;;;;16.29;56.03;99656.53;5015225;28;8830;-56
2023/07/19 01:06:25;;;;;;;;;4.00;4.00;;;;;16.26;56.22;99656.84;5016971;28;8826;-57
2023/07/19 01:08:52;;;;;;;;;4.00;4.00;;;;;16.25;55.90;99649.78;5021684;28;8876;-58
2023/07/19 01:11:20;;;;;;;;;5.50;4.00;;;;;16.23;55.67;99641.06;5032198;28;8972;-56
2023/07/19 01:13:49;;;;;;;;;4.00;4.00;;;;;16.23;56.16;99642.88;5030628;28;8954;-59
2023/07/19 01:16:17;;;;;;;;;1.00;1.00;;;;;16.22;56.37;99635.84;5024717;28;8844;-59
2023/07/19 01:18:44;;;;;;;;;8.25;5.50;;;;;16.21;56.33;99639.53;5033772;28;8851;-58
2023/07/19 01:21:12;;;;;;;;;4.00;3.25;;;;;16.19;56.26;99645.06;5033788;28;8812;-58
2023/07/19 01:23:54;;;;;;;;;6.00;6.00;;;;;16.17;55.92;99630.97;5033527;28;8832;-59
2023/07/19 01:26:21;;;;;;;;;6.00;5.50;;;;;16.16;56.41;99627.59;5032991;28;8982;-57
2023/07/19 01:28:49;;;;;;;;;6.25;6.00;;;;;16.15;56.21;99625.94;5033093;28;8854;-57
2023/07/19 01:31:17;;;;;;;;;6.25;5.75;;;;;16.14;56.25;99624.25;5032917;28;8820;-58
2023/07/19 01:33:45;;;;;;;;;5.00;5.00;;;;;16.12;56.48;99626.25;5033115;28;8901;-59
2023/07/19 01:36:13;;;;;;;;;6.50;4.00;;;;;16.11;56.11;99627.25;5032944;28;8844;-57
2023/07/19 01:38:42;;;;;;;;;6.00;4.00;;;;;16.09;56.63;99624.72;5033049;28;8851;-57
2023/07/19 01:41:09;;;;;;;;;4.50;4.50;;;;;16.07;56.79;99620.53;5032542;28;8816;-57
2023/07/19 01:43:37;;;;;;;;;6.00;6.00;;;;;16.05;56.49;99625.22;5032854;28;8840;-59
2023/07/19 01:46:05;;;;;;;;;6.25;6.25;;;;;16.04;56.86;99620.84;5033125;28;8856;-57
2023/07/19 01:48:32;;;;;;;;;7.50;5.00;;;;;16.02;56.84;99622.88;5033172;28;8832;-58
2023/07/19 01:51:02;;;;;;;;;6.00;5.00;;;;;16.00;56.43;99611.47;5033711;28;8835;-57
2023/07/19 01:53:30;;;;;;;;;5.00;4.00;;;;;15.98;56.46;99610.75;5033794;28;9643;-58
2023/07/19 01:55:57;;;;;;;;;1.00;1.00;;;;;15.95;56.83;99608.41;5032262;28;8848;-58
2023/07/19 01:58:25;;;;;;;;;3.50;3.50;;;;;15.92;57.40;99609.56;5033425;28;8824;-56
2023/07/19 02:00:53;;;;;;;;;6.00;6.00;;;;;15.88;56.92;99602.88;5034082;28;9501;-59
2023/07/19 02:03:22;;;;;;;;;4.00;4.00;;;;;15.87;56.71;99611.06;5032424;28;8832;-59
2023/07/19 02:05:51;;;;;;;;;5.50;5.50;;;;;15.84;56.76;99598.00;5028022;28;9549;-59
2023/07/19 02:08:20;;;;;;;;;4.50;4.50;;;;;15.83;56.76;99605.19;5014982;28;8823;-57
2023/07/19 02:10:48;;;;;;;;;6.75;6.75;;;;;15.83;57.07;99593.59;5013212;28;8833;-58
2023/07/19 02:13:16;;;;;;;;;5.50;3.75;;;;;15.84;56.68;99598.00;5013386;28;8832;-56
2023/07/19 02:15:44;;;;;;;;;5.50;4.00;;;;;15.86;56.87;99593.28;5019135;28;9521;-59
2023/07/19 02:18:12;;;;;;;;;5.50;5.50;;;;;15.87;56.85;99593.13;5031137;28;8828;-58
2023/07/19 02:20:39;;;;;;;;;6.00;5.50;;;;;15.86;56.50;99594.09;5013358;28;8830;-58
2023/07/19 02:23:07;;;;;;;;;6.50;6.00;;;;;15.86;57.21;99587.91;5013783;28;8841;-58
2023/07/19 02:25:35;;;;;;;;;5.00;3.25;;;;;15.85;57.18;99581.69;5028525;28;8852;-57
2023/07/19 02:28:04;;;;;;;;;4.00;4.00;;;;;15.81;57.55;99585.72;5013834;28;8830;-57
2023/07/19 02:30:32;;;;;;;;;5.50;5.50;;;;;15.80;56.80;99584.03;5033141;28;8832;-59
2023/07/19 02:33:00;;;;;;;;;5.00;4.00;;;;;15.76;56.86;99584.53;5032973;28;8848;-58
2023/07/19 02:35:27;;;;;;;;;5.50;5.50;;;;;15.73;57.32;99579.47;5029541;28;8845;-58
2023/07/19 02:37:55;;;;;;;;;4.50;4.00;;;;;15.68;57.62;99589.84;5025003;28;8832;-58
2023/07/19 02:40:23;;;;;;;;;4.00;4.00;;;;;15.64;57.56;99588.50;5032246;28;8847;-59
2023/07/19 02:42:51;;;;;;;;;6.75;6.00;;;;;15.60;57.39;99587.16;5033109;28;8832;-58
2023/07/19 02:45:18;;;;;;;;;6.00;5.50;;;;;15.57;57.88;99593.72;5031398;28;8958;-58
2023/07/19 02:47:46;;;;;;;;;4.00;4.00;;;;;15.54;57.65;99593.19;5013058;28;8854;-56
2023/07/19 02:50:13;;;;;;;;;2.00;0.75;;;;;15.51;57.63;99594.34;5012990;28;8853;-58
2023/07/19 02:52:41;;;;;;;;;6.50;6.00;;;;;15.48;57.55;99586.59;5013549;28;8858;-58
2023/07/19 02:55:10;;;;;;;;;9.75;6.00;;;;;15.46;57.82;99593.16;5028321;28;8808;-58
2023/07/19 02:57:37;;;;;;;;;5.50;5.50;;;;;15.44;57.90;99598.69;5013027;28;8818;-59
2023/07/19 03:00:06;;;;;;;;;3.00;3.00;;;;;15.43;58.22;99593.47;5013264;28;8830;-58
2023/07/19 03:02:34;;;;;;;;;9.00;7.00;;;;;15.41;57.71;99590.94;5012988;28;8826;-57
2023/07/19 03:05:03;;;;;;;;;4.00;4.00;;;;;15.41;57.80;99592.78;5031336;28;8824;-58
2023/07/19 03:07:31;;;;;;;;;5.00;5.00;;;;;15.40;57.74;99588.44;5013176;28;8945;-59
2023/07/19 03:09:59;;;;;;;;;6.75;6.00;;;;;15.39;57.77;99597.47;5013719;28;8827;-58
2023/07/19 03:12:26;;;;;;;;;6.75;6.50;;;;;15.35;58.24;99593.44;5012628;28;9534;-59
2023/07/19 03:14:54;;;;;;;;;6.00;5.00;;;;;15.32;58.01;99593.75;5013005;28;8819;-58
2023/07/19 03:17:22;;;;;;;;;4.50;4.00;;;;;15.27;58.32;99594.22;5015790;28;8834;-57
2023/07/19 03:19:50;;;;;;;;;7.00;6.25;;;;;15.21;58.78;99585.94;5029922;28;8839;-59
2023/07/19 03:22:17;;;;;;;;;5.50;5.50;;;;;15.16;58.27;99597.16;5035237;28;8862;-58
2023/07/19 03:24:45;;;;;;;;;6.50;4.00;;;;;15.12;58.63;99603.00;5035523;28;8836;-58
2023/07/19 03:27:12;;;;;;;;;7.75;6.25;;;;;15.08;58.25;99597.09;5035910;28;8836;-58
2023/07/19 03:29:40;;;;;;;;;5.25;3.50;;;;;15.06;58.55;99599.13;5035728;28;9506;-58
2023/07/19 03:32:08;;;;;;;;;6.00;5.25;;;;;15.06;58.56;99596.44;5035300;28;9562;-59
2023/07/19 03:34:36;;;;;;;;;6.00;6.00;;;;;15.05;58.95;99599.25;5035614;28;8856;-56
2023/07/19 03:37:03;;;;;;;;;7.50;6.50;;;;;15.05;58.55;99591.22;5035107;28;8812;-57
2023/07/19 03:39:31;;;;;;;;;5.50;5.50;;;;;15.06;59.02;99600.94;5035093;28;8828;-58
2023/07/19 03:41:59;;;;;;;;;8.00;6.25;;;;;15.07;58.84;99594.56;5035727;28;8820;-58
2023/07/19 03:44:27;;;;;;;;;9.00;6.50;;;;;15.07;59.05;99594.56;5035940;28;8832;-58
2023/07/19 03:46:54;;;;;;;;;6.00;4.00;;;;;15.10;58.68;99599.63;5034972;28;8862;-58
2023/07/19 03:49:22;;;;;;;;;3.25;1.00;;;;;15.11;58.53;99601.31;5034813;28;8866;-57
2023/07/19 03:51:50;;;;;;;;;8.00;6.00;;;;;15.14;58.74;99596.47;5035095;28;8824;-57
2023/07/19 03:54:18;;;;;;;;;6.00;6.00;;;;;15.17;58.28;99598.00;5035006;28;8804;-58
2023/07/19 03:56:46;;;;;;;;;9.50;7.50;;;;;15.20;58.92;99595.84;5034930;28;8843;-56
2023/07/19 03:59:14;;;;;;;;;8.00;7.50;;;;;15.25;58.26;99595.38;5034732;28;8962;-58
2023/07/19 04:01:41;;;;;;;;;6.25;5.75;;;;;15.32;58.06;99599.13;5034753;28;8846;-58
2023/07/19 04:04:09;;;;;;;;;6.00;6.00;;;;;15.40;58.20;99597.31;5022494;28;8865;-57
2023/07/19 04:06:37;;;;;;;;;6.75;6.75;;;;;15.49;57.80;99590.13;5014941;28;8835;-57
2023/07/19 04:09:05;;;;;;;;;6.00;5.25;;;;;15.56;58.10;99583.13;5015935;28;8839;-59
2023/07/19 04:11:33;;;;;;;;;6.00;6.00;;;;;15.68;57.61;99589.84;5015942;28;8838;-56
2023/07/19 04:14:03;;;;;;;;;6.75;6.00;;;;;15.75;57.79;99594.44;5014636;28;8810;-59
2023/07/19 04:16:33;;;;;;;;;6.50;6.00;;;;;15.80;57.60;99583.19;5015119;28;8862;-58
2023/07/19 04:19:01;;;;;;;;;6.50;5.50;;;;;15.87;57.54;99581.53;5023092;28;8854;-59
2023/07/19 04:21:33;;;;;;;;;5.50;4.50;;;;;15.92;57.05;99582.72;5033623;28;8853;-59
2023/07/19 04:24:01;;;;;;;;;6.50;6.25;;;;;16.00;56.90;99579.22;5015930;28;8865;-56
2023/07/19 04:26:29;;;;;;;;;5.50;5.00;;;;;16.05;56.95;99583.09;5014019;28;8862;-58
2023/07/19 04:28:57;;;;;;;;;7.00;6.75;;;;;16.10;57.59;99585.28;5022012;28;8908;-58
2023/07/19 04:31:25;;;;;;;;;5.00;5.00;;;;;16.14;57.45;99582.09;5032808;28;8820;-56
2023/07/19 04:33:53;;;;;;;;;5.00;4.00;;;;;16.17;57.18;99591.66;5034002;28;8937;-57
2023/07/19 04:36:20;;;;;;;;;4.00;4.00;;;;;16.18;57.36;99600.41;5033621;28;8820;-58
2023/07/19 04:38:48;;;;;;;;;6.50;6.25;;;;;16.21;57.64;99599.22;5026181;28;8849;-57
2023/07/19 04:41:16;;;;;;;;;6.50;5.75;;;;;16.25;57.20;99592.53;5013757;28;8860;-58
2023/07/19 04:43:44;;;;;;;;;4.00;4.00;;;;;16.31;57.27;99600.75;5015027;28;9000;-57
2023/07/19 04:46:12;;;;;;;;;6.00;6.00;;;;;16.35;57.09;99591.34;5014428;28;8896;-57
2023/07/19 04:48:39;;;;;;;;;6.25;6.00;;;;;16.39;57.07;99591.88;5018241;28;8826;-58
2023/07/19 04:51:07;;;;;;;;;7.50;7.00;;;;;16.43;56.51;99607.53;5014205;28;8845;-58
2023/07/19 04:53:35;;;;;;;;;8.00;7.00;;;;;16.50;56.85;99605.81;5018672;28;8828;-58
2023/07/19 04:56:03;;;;;;;;;7.00;6.75;;;;;16.58;56.77;99608.53;5033238;28;8853;-58
2023/07/19 04:58:30;;;;;;;;;4.75;4.50;;;;;16.65;56.52;99604.16;5017240;28;8848;-58
2023/07/19 05:00:58;;;;;;;;;6.25;6.00;;;;;16.73;56.37;99606.84;5032478;28;8828;-56
2023/07/19 05:03:26;;;;;;;;;6.75;6.75;;;;;16.81;56.68;99596.09;5029218;28;8806;-58
2023/07/19 05:05:55;;;;;;;;;6.00;5.00;;;;;16.86;56.43;99591.03;5014234;28;8860;-56
2023/07/19 05:08:23;;;;;;;;;7.00;6.75;;;;;16.91;56.70;99587.81;5015264;28;9531;-58
2023/07/19 05:10:51;;;;;;;;;6.75;3.00;;;;;16.94;56.62;99599.06;5032144;28;8824;-59
2023/07/19 05:13:18;;;;;;;;;7.50;6.50;;;;;16.97;56.09;99601.44;5032213;28;8848;-58
2023/07/19 05:15:46;;;;;;;;;7.50;6.75;;;;;16.99;56.17;99612.00;5015020;28;8841;-58
2023/07/19 05:18:14;;;;;;;;;6.75;6.75;;;;;17.01;56.70;99616.22;5033813;28;8812;-56
2023/07/19 05:20:41;;;;;;;;;8.00;7.00;;;;;17.02;56.88;99599.06;5034210;28;8881;-58
2023/07/19 05:23:10;;;;;;;;;9.00;8.50;;;;;17.12;56.56;99590.81;5033795;28;9509;-58
2023/07/19 05:25:38;;;;;;;;;4.00;4.00;;;;;17.15;56.13;99591.31;5033493;28;8844;-58
2023/07/19 05:28:06;;;;;;;;;7.00;7.00;;;;;17.19;56.41;99598.03;5033571;28;8828;-58
2023/07/19 05:30:34;;;;;;;;;6.50;6.25;;;;;17.25;55.71;99601.88;5033130;28;8866;-56
2023/07/19 05:33:02;;;;;;;;;9.75;7.50;;;;;17.30;56.06;99604.91;5033582;28;9741;-57
2023/07/19 05:35:29;;;;;;;;;8.00;8.00;;;;;17.36;55.68;99609.56;5032950;28;9518;-59
2023/07/19 05:37:57;;;;;;;;;6.20;6.00;;;;;17.45;56.17;99614.81;5032760;28;8852;-58
2023/07/19 05:40:27;;;;;;;;;8.00;7.00;;;;;17.55;55.64;99610.03;5031857;28;8827;-57
2023/07/19 05:49:15;;;;;;;;;4.00;3.40;;;;;18.02;55.14;99602.75;5013361;28;8791;-58
2023/07/19 05:51:43;;;;;;;;;6.00;4.00;;;;;18.14;54.91;99604.00;5012875;28;8842;-57
2023/07/19 05:54:11;;;;;;;;;6.40;6.00;;;;;18.28;54.35;99608.66;5017906;28;8835;-59
2023/07/19 05:56:39;;;;;;;;;7.00;7.00;;;;;18.37;54.79;99604.91;5023522;28;8826;-56
2023/07/19 05:59:06;;;;;;;;;9.00;6.00;;;;;18.46;54.20;99609.25;5017551;28;8862;-56
2023/07/19 06:01:34;;;;;;;;;7.80;6.60;;;;;18.56;54.16;99608.97;5017887;28;8822;-57
2023/07/19 06:04:03;;;;;;;;;6.60;6.60;;;;;18.61;54.02;99618.19;5016733;28;8835;-57
2023/07/19 06:06:33;;;;;;;;;6.00;6.00;;;;;18.69;53.97;99620.84;5032240;28;8824;-58
2023/07/19 06:09:05;;;;;;;;;6.80;6.80;;;;;18.82;54.17;99612.97;5030159;28;8824;-57
2023/07/19 06:11:33;;;;;;;;;6.80;6.80;;;;;18.92;54.23;99608.16;5012662;28;8854;-58
2023/07/19 06:14:01;;;;;;;;;7.00;6.60;;;;;19.01;53.71;99609.75;5012214;28;8838;-57
2023/07/19 06:16:29;;;;;;;;;6.00;5.20;;;;;19.11;53.35;99617.59;5012576;28;8834;-58
2023/07/19 06:18:57;;;;;;;;;4.40;4.40;;;;;19.20;53.58;99621.94;5013742;28;9492;-59
2023/07/19 06:21:24;;;;;;;;;6.00;6.00;;;;;19.28;53.15;99608.34;5012601;28;8814;-59
2023/07/19 06:23:52;;;;;;;;;6.20;6.00;;;;;19.38;53.57;99607.03;5013356;28;8823;-59
2023/07/19 06:26:19;;;;;;;;;4.00;4.00;;;;;19.52;52.90;99611.59;5018715;28;8812;-56
2023/07/19 06:28:47;;;;;;;;;6.40;5.80;;;;;19.72;52.62;99603.78;5027680;28;8815;-59
2023/07/19 06:31:15;;;;;;;;;5.20;4.40;;;;;19.89;52.71;99602.53;5030740;28;8846;-58
2023/07/19 06:33:43;;;;;;;;;5.20;4.80;;;;;19.98;51.95;99596.81;5032074;28;8867;-58
2023/07/19 06:36:11;;;;;;;;;2.20;2.20;;;;;20.04;51.97;99609.56;5017039;28;8845;-59
2023/07/19 06:38:39;;;;;;;;;4.40;4.00;;;;;20.06;52.12;99599.44;5012862;28;8826;-59
2023/07/19 06:41:07;;;;;;;;;1.80;1.00;;;;;20.07;52.24;99603.81;5029473;28;9524;-58
2023/07/19 06:43:35;;;;;;;;;4.00;4.00;;;;;20.11;52.18;99596.97;5032602;28;8820;-56
2023/07/19 06:46:02;;;;;;;;;5.40;5.00;;;;;20.17;52.41;99590.81;5030871;28;8872;-58
2023/07/19 06:48:30;;;;;;;;;3.60;3.60;;;;;20.19;52.39;99604.16;5030919;28;8844;-58
2023/07/19 06:50:58;;;;;;;;;4.00;4.00;;;;;20.21;52.39;99597.53;5016167;28;8920;-56
2023/07/19 06:53:25;;;;;;;;;5.00;4.80;;;;;20.28;51.85;99603.84;5014660;28;8838;-58
2023/07/19 06:55:55;;;;;;;;;5.00;4.60;;;;;20.32;52.38;99601.59;5028587;28;8889;-57
2023/07/19 06:58:23;;;;;;;;;6.80;5.80;;;;;20.32;52.31;99602.41;5015283;28;8858;-57
2023/07/19 07:00:51;;;;;;;;;4.00;4.00;;;;;20.29;52.34;99600.13;5029783;28;8816;-56
2023/07/19 07:03:22;;;;;;;;;6.20;4.40;;;;;20.11;52.82;99607.81;5033864;28;8914;-59
2023/07/19 07:05:50;;;;;;;;;5.80;5.00;;;;;19.90;53.82;99607.75;5015960;28;8830;-59
2023/07/19 07:08:17;;;;;;;;;7.80;7.00;;;;;19.87;53.23;99610.00;5015775;28;8922;-58
2023/07/19 07:10:45;;;;;;;;;4.40;4.40;;;;;19.94;53.07;99609.03;5028762;28;8942;-58
2023/07/19 07:13:14;;;;;;;;;4.20;4.20;;;;;20.00;52.96;99604.72;5033488;28;8832;-57
2023/07/19 07:15:42;;;;;;;;;5.00;4.60;;;;;20.03;53.17;99617.88;5028732;28;8989;-57
2023/07/19 07:18:11;;;;;;;;;8.00;7.00;;;;;20.00;52.89;99613.69;5028852;28;8904;-59
2023/07/19 07:20:38;;;;;;;;;7.00;7.00;;;;;20.01;52.65;99625.34;5034717;28;8924;-56
2023/07/19 07:23:06;;;;;;;;;4.00;4.00;;;;;19.99;53.08;99625.53;5034525;28;8835;-58
2023/07/19 07:25:34;;;;;;;;;6.80;6.40;;;;;19.98;53.39;99629.25;5034935;28;8848;-59
2023/07/19 07:28:01;;;;;;;;;5.00;5.00;;;;;19.98;53.08;99606.78;5035048;28;8852;-58
2023/07/19 07:30:29;;;;;;;;;5.00;5.00;;;;;19.98;53.59;99623.84;5034672;28;8852;-57
2023/07/19 07:32:57;;;;;;;;;6.00;5.60;;;;;19.97;53.61;99621.34;5034510;28;8836;-57
2023/07/19 07:35:25;;;;;;;;;6.60;6.60;;;;;19.97;53.21;99624.03;5034286;28;8927;-56
2023/07/19 07:37:53;;;;;;;;;6.40;6.00;;;;;20.00;53.04;99638.03;5033669;28;8855;-57
2023/07/19 07:40:22;;;;;;;;;5.00;5.00;;;;;20.05;53.01;99629.38;5034579;28;8812;-58
2023/07/19 07:42:50;;;;;;;;;7.20;5.00;;;;;20.10;53.34;99638.56;5035303;28;8957;-56
2023/07/19 07:45:18;;;;;;;;;7.00;6.20;;;;;20.13;52.85;99621.13;5034424;28;8939;-57
2023/07/19 07:47:46;;;;;;;;;8.80;8.80;;;;;20.18;53.18;99635.75;5034115;28;8848;-56
2023/07/19 07:50:13;;;;;;;;;8.00;7.00;;;;;20.25;52.57;99636.69;5033542;28;8878;-57
2023/07/19 07:52:41;;;;;;;;;7.60;7.20;;;;;20.28;52.97;99630.91;5033899;28;8848;-58
2023/07/19 07:55:12;;;;;;;;;4.60;4.20;;;;;20.31;52.75;99624.28;5033998;28;8843;-58
2023/07/19 07:57:40;;;;;;;;;9.80;9.20;;;;;20.27;53.02;99631.09;5033840;28;8932;-58
2023/07/19 08:00:09;;;;;;;;;4.00;4.00;;;;;20.23;53.74;99630.63;5030202;28;8843;-57
2023/07/19 08:02:39;;;;;;;;;7.00;7.00;;;;;20.19;53.52;99631.19;5031517;28;8816;-56
2023/07/19 08:05:07;;;;;;;;;4.00;4.00;;;;;20.13;53.53;99631.97;5030657;28;8836;-57
2023/07/19 08:07:35;;;;;;;;;5.00;5.00;;;;;20.10;53.69;99621.53;5013774;28;8889;-59
2023/07/19 08:10:03;;;;;;;;;0.80;0.80;;;;;20.13;53.27;99622.00;5014517;28;8858;-59
2023/07/19 08:12:30;;;;;;;;;4.60;4.00;;;;;20.20;53.04;99616.66;5013491;28;8843;-56
2023/07/19 08:14:58;;;;;;;;;4.60;4.00;;;;;20.32;53.07;99620.53;5013551;28;8818;-57
2023/07/19 08:17:26;;;;;;;;;6.80;4.80;;;;;20.47;52.99;99616.72;5031439;28;8828;-58
2023/07/19 08:19:54;;;;;;;;;4.80;4.20;;;;;20.62;52.33;99625.63;5032227;28;8820;-57
2023/07/19 08:22:22;;;;;;;;;6.20;5.00;;;;;20.71;52.35;99621.75;5013868;28;8868;-56
2023/07/19 08:24:50;;;;;;;;;5.00;4.00;;;;;20.74;52.16;99626.78;5014711;28;8837;-59
2023/07/19 08:27:18;;;;;;;;;3.60;2.80;;;;;20.66;52.46;99640.47;5016716;28;8842;-57
2023/07/19 08:29:46;;;;;;;;;4.40;4.20;;;;;20.25;53.23;99650.19;5026883;28;8849;-56
2023/07/19 08:32:14;;;;;;;;;6.20;5.00;;;;;19.73;54.60;99649.50;5022775;28;8855;-59
2023/07/19 08:34:42;;;;;;;;;7.00;5.80;;;;;19.40;55.28;99652.75;5033311;28;8954;-57
2023/07/19 08:37:10;;;;;;;;;6.20;6.20;;;;;19.05;56.29;99639.94;5033956;28;9493;-57
2023/07/19 08:39:37;;;;;;;;;7.40;7.40;;;;;18.80;57.27;99633.91;5014570;28;8829;-58
2023/07/19 08:42:05;;;;;;;;;7.00;7.00;;;;;18.62;57.65;99628.00;5014969;28;8842;-59
2023/07/19 08:44:33;;;;;;;;;9.20;7.80;;;;;18.50;57.50;99629.41;5014893;28;8857;-58
2023/07/19 08:47:02;;;;;;;;;10.00;9.00;;;;;18.47;57.94;99628.94;5013557;28;8830;-57
2023/07/19 08:49:30;;;;;;;;;9.00;8.80;;;;;18.50;57.91;99626.72;5030496;28;9526;-56
2023/07/19 08:51:58;;;;;;;;;8.60;8.60;;;;;18.62;57.20;99621.75;5017116;28;8831;-59
2023/07/19 08:54:26;;;;;;;;;4.00;4.00;;;;;18.82;56.82;99623.75;5013863;28;8848;-57
2023/07/19 08:56:54;;;;;;;;;5.40;5.00;;;;;19.02;56.38;99622.22;5014294;28;8842;-58
2023/07/19 08:59:22;;;;;;;;;10.20;9.80;;;;;19.22;55.80;99626.13;5031596;28;8860;-57
2023/07/19 09:01:50;;;;;;;;;5.00;5.00;;;;;19.34;55.88;99619.22;5018614;28;8822;-59
2023/07/19 09:04:18;;;;;;;;;5.20;4.80;;;;;19.42;55.78;99638.03;5013853;28;8842;-58
2023/07/19 09:06:46;;;;;;;;;6.00;5.80;;;;;19.48;55.44;99636.44;5028504;28;8964;-56
2023/07/19 09:09:15;;;;;;;;;6.40;6.40;;;;;19.52;55.84;99638.63;5032522;28;8965;-57
2023/07/19 09:11:44;;;;;;;;;6.20;6.20;;;;;19.58;55.69;99631.63;5030919;28;8832;-57
2023/07/19 09:14:12;;;;;;;;;7.00;7.00;;;;;19.59;55.97;99617.94;5015511;28;8826;-57
2023/07/19 09:16:39;;;;;;;;;9.20;7.00;;;;;19.58;55.47;99627.03;5014334;28;8876;-58
2023/07/19 09:19:07;;;;;;;;;8.20;7.60;;;;;19.60;56.11;99621.47;5021201;28;8820;-58
2023/07/19 09:21:35;;;;;;;;;8.20;8.20;;;;;19.59;55.65;99611.69;5032913;28;9566;-59
2023/07/19 09:24:03;;;;;;;;;7.60;7.00;;;;;19.54;56.32;99616.81;5032609;28;9403;-57
2023/07/19 09:26:31;;;;;;;;;8.20;7.80;;;;;19.44;56.57;99617.09;5032849;28;8851;-58
2023/07/19 09:28:59;;;;;;;;;5.00;5.00;;;;;19.35;57.01;99637.09;5032930;28;8835;-57
2023/07/19 09:31:29;;;;;;;;;4.00;4.00;;;;;19.27;56.91;99630.97;5032700;28;8974;-59
2023/07/19 09:33:58;;;;;;;;;7.60;6.40;;;;;19.22;57.01;99626.13;5032619;28;8864;-59
2023/07/19 09:36:25;;;;;;;;;8.00;7.20;;;;;19.10;58.08;99627.56;5032059;28;8828;-59
2023/07/19 09:38:55;;;;;;;;;7.20;6.40;;;;;18.91;58.21;99635.34;5032167;28;8836;-58
2023/07/19 09:41:22;;;;;;;;;10.00;9.00;;;;;18.65;58.98;99635.72;5032540;28;8839;-59
2023/07/19 09:43:50;;;;;;;;;7.60;7.20;;;;;18.46;59.64;99636.22;5032626;28;8840;-57
2023/07/19 09:46:19;;;;;;;;;7.80;6.60;;;;;18.42;59.94;99625.94;5032389;28;8861;-57
2023/07/19 09:48:48;;;;;;;;;7.00;7.00;;;;;18.49;59.77;99627.75;5032311;28;8870;-57
2023/07/19 09:51:15;;;;;;;;;6.00;6.00;;;;;18.60;59.50;99631.88;5032597;28;9494;-59
2023/07/19 09:53:46;;;;;;;;;10.80;10.00;;;;;18.73;58.52;99629.44;5032645;28;8928;-56
2023/07/19 09:56:14;;;;;;;;;10.00;10.00;;;;;18.84;58.99;99627.13;5032971;28;8847;-57
2023/07/19 09:58:43;;;;;;;;;11.80;9.20;;;;;18.93;58.34;99633.28;5032657;28;9518;-58
2023/07/19 10:01:11;;;;;;;;;6.80;6.80;;;;;19.07;57.87;99638.72;5031486;28;9498;-57
2023/07/19 10:03:38;;;;;;;;;7.60;7.00;;;;;19.22;57.61;99636.94;5027256;28;8860;-58
2023/07/19 10:06:06;;;;;;;;;9.80;9.00;;;;;19.33;58.00;99638.31;5020952;28;8933;-59
2023/07/19 10:08:34;;;;;;;;;6.80;6.00;;;;;19.40;58.20;99640.09;5030524;28;8847;-59
2023/07/19 10:11:03;;;;;;;;;12.20;12.00;;;;;19.41;57.83;99630.97;5031164;28;8896;-58
2023/07/19 10:13:31;;;;;;;;;8.80;7.00;;;;;19.40;57.94;99620.34;5031131;28;8842;-57
2023/07/19 10:15:58;;;;;;;;;9.40;7.20;;;;;19.36;58.12;99632.56;5030812;28;8870;-59
2023/07/19 10:18:27;;;;;;;;;9.40;9.00;;;;;19.32;58.13;99625.84;5024801;28;8841;-57
2023/07/19 10:20:55;;;;;;;;;10.00;9.60;;;;;19.28;58.55;99621.84;5011249;28;8834;-56
2023/07/19 10:23:25;;;;;;;;;5.40;5.40;;;;;19.34;58.52;99616.53;5011262;28;8822;-59
2023/07/19 10:25:53;;;;;;;;;10.00;10.00;;;;;19.45;58.26;99616.09;5010867;28;8853;-59
2023/07/19 10:28:21;;;;;;;;;12.20;11.60;;;;;19.56;58.40;99612.91;5015213;28;9525;-58
2023/07/19 10:30:49;;;;;;;;;7.60;7.00;;;;;19.61;58.23;99615.88;5031553;28;8916;-57
2023/07/19 10:33:17;;;;;;;;;5.80;5.80;;;;;19.59;58.69;99615.25;5032020;28;8847;-58
2023/07/19 10:35:46;;;;;;;;;8.40;7.60;;;;;19.55;59.01;99613.94;5031306;28;8820;-58
2023/07/19 10:38:14;;;;;;;;;7.80;7.00;;;;;19.56;58.73;99615.59;5016189;28;8955;-59
2023/07/19 10:40:41;;;;;;;;;9.20;8.20;;;;;19.60;58.68;99606.09;5030673;28;8824;-59
2023/07/19 10:43:09;;;;;;;;;7.60;7.60;;;;;19.98;58.62;99595.97;5030619;28;8800;-58
2023/07/19 10:45:39;;;;;;;;;8.20;7.80;;;;;20.99;56.64;99592.88;5032118;28;8978;-58
2023/07/19 10:48:12;;;;;;;;;11.00;11.00;;;;;22.13;55.02;99591.22;5029006;28;9532;-57
2023/07/19 10:50:41;;;;;;;;;9.60;8.80;;;;;22.67;54.86;99590.13;5019757;28;8812;-57
2023/07/19 10:53:09;;;;;;;;;7.60;7.00;;;;;22.76;54.29;99588.06;5031290;28;8974;-58
2023/07/19 10:55:37;;;;;;;;;9.60;8.00;;;;;22.81;53.67;99585.53;5032022;28;8855;-59
2023/07/19 10:58:21;;;;;;;;;7.20;7.20;;;;;23.37;53.29;99584.06;5019962;28;8867;-57
2023/07/19 11:00:50;;;;;;;;;6.80;6.20;;;;;23.65;52.30;99585.44;5032119;28;8852;-57
2023/07/19 11:03:22;;;;;;;;;5.20;4.80;;;;;23.86;52.29;99590.66;5029773;28;8827;-59
2023/07/19 11:05:50;;;;;;;;;6.00;5.60;;;;;23.99;52.18;99589.75;5029895;28;8966;-57
2023/07/19 11:08:18;;;;;;;;;5.00;5.00;;;;;24.33;51.75;99575.72;5029742;28;8958;-59
2023/07/19 11:10:46;;;;;;;;;5.00;5.00;;;;;24.67;51.59;99581.63;5029273;28;8828;-57
2023/07/19 11:13:14;;;;;;;;;7.00;6.00;;;;;24.87;50.82;99578.75;5030748;28;8832;-58
2023/07/19 11:15:42;;;;;;;;;6.20;5.40;;;;;25.13;50.25;99579.34;5024659;28;8815;-57
2023/07/19 11:18:10;;;;;;;;;5.80;5.20;;;;;25.20;50.05;99579.28;5025413;28;8827;-56
2023/07/19 11:20:39;;;;;;;;;7.40;7.00;;;;;25.31;50.50;99565.78;5030979;28;8816;-59
2023/07/19 11:23:08;;;;;;;;;5.40;4.80;;;;;25.55;50.07;99569.53;5031575;28;8820;-58
2023/07/19 11:25:38;;;;;;;;;5.40;5.00;;;;;26.11;48.63;99571.75;5031016;28;8882;-57
2023/07/19 11:28:06;;;;;;;;;5.00;5.00;;;;;26.38;48.25;99559.41;5030796;28;8848;-59
2023/07/19 11:30:35;;;;;;;;;5.00;3.80;;;;;26.39;48.33;99565.69;5030399;28;8839;-59
2023/07/19 11:33:03;;;;;;;;;4.60;4.60;;;;;26.64;48.11;99563.69;5030206;28;8848;-56
2023/07/19 11:35:31;;;;;;;;;6.00;6.00;;;;;27.02;47.33;99555.91;5030887;28;9637;-58
2023/07/19 11:37:59;;;;;;;;;3.80;3.40;;;;;27.81;46.28;99562.44;5034634;28;8836;-57
2023/07/19 11:40:27;;;;;;;;;3.20;3.20;;;;;28.27;45.89;99550.47;5034203;28;8924;-59
2023/07/19 11:42:55;;;;;;;;;8.40;7.20;;;;;28.13;45.49;99555.41;5034834;28;8839;-57
2023/07/19 11:45:23;;;;;;;;;8.20;8.00;;;;;28.12;45.97;99555.66;5034276;28;8848;-57
2023/07/19 11:47:51;;;;;;;;;8.20;6.80;;;;;28.40;45.30;99539.25;5033809;28;9630;-58
2023/07/19 11:50:21;;;;;;;;;7.20;6.60;;;;;28.89;44.19;99542.03;5034444;28;8827;-58
2023/07/19 11:52:49;;;;;;;;;7.60;7.00;;;;;29.40;43.56;99536.28;5034266;28;8852;-57